createdAt,value
2019-02-12T00:01:09.175Z,80.29
2019-02-12T00:03:37.638Z,80.20
2019-02-12T00:06:05.874Z,80.10
2019-02-12T00:08:34.114Z,80.11
2019-02-12T00:11:02.358Z,79.76
2019-02-12T00:13:30.585Z,79.76
2019-02-12T00:15:58.819Z,79.72
2019-02-12T00:18:27.068Z,78.61
2019-02-12T00:20:55.542Z,78.61
2019-02-12T00:23:24.015Z,78.42
2019-02-12T00:25:52.250Z,77.36
2019-02-12T00:28:20.489Z,75.69
2019-02-12T00:30:48.713Z,75.13
2019-02-12T00:33:17.181Z,72.98
2019-02-12T00:35:45.419Z,72.37
2019-02-12T00:38:13.880Z,72.20
2019-02-12T00:40:42.344Z,71.89
2019-02-12T00:43:10.810Z,71.93
2019-02-12T00:45:39.268Z,71.83
2019-02-12T00:48:07.524Z,72.10
2019-02-12T00:50:35.976Z,72.10
2019-02-12T00:53:04.220Z,71.60
2019-02-12T00:55:32.686Z,71.80
2019-02-12T00:58:00.930Z,71.91
2019-02-12T01:00:29.164Z,72.60
2019-02-12T01:02:57.412Z,72.24
2019-02-12T01:07:58.295Z,71.99
2019-02-12T01:10:26.843Z,70.55
2019-02-12T01:12:55.071Z,69.36
2019-02-12T01:15:23.605Z,70.56
2019-02-12T01:17:51.890Z,70.56
2019-02-12T01:20:20.141Z,70.49
2019-02-12T01:22:48.449Z,70.51
2019-02-12T01:25:16.688Z,70.51
2019-02-12T01:27:44.919Z,70.42
2019-02-12T01:30:16.828Z,69.98
2019-02-12T01:32:45.448Z,69.98
2019-02-12T01:35:14.018Z,69.98
2019-02-12T01:37:42.518Z,69.63
2019-02-12T01:40:12.083Z,69.63
2019-02-12T01:42:40.691Z,68.08
2019-02-12T01:45:10.667Z,68.46
2019-02-12T01:47:38.899Z,68.27
2019-02-12T01:50:09.539Z,68.27
2019-02-12T01:52:37.768Z,66.82
2019-02-12T01:55:06.279Z,68.36
2019-02-12T01:57:34.565Z,68.43
2019-02-12T02:00:02.811Z,69.26
2019-02-12T02:02:31.043Z,68.81
2019-02-12T02:04:59.590Z,69.01
2019-02-12T02:07:27.818Z,69.01
2019-02-12T02:09:56.054Z,68.95
2019-02-12T02:12:24.284Z,68.95
2019-02-12T02:14:52.515Z,69.16
2019-02-12T02:17:20.974Z,69.16
2019-02-12T02:19:49.434Z,69.56
2019-02-12T02:22:17.939Z,69.79
2019-02-12T02:24:46.180Z,69.75
2019-02-12T02:27:14.409Z,69.47
2019-02-12T02:29:42.639Z,69.41
2019-02-12T02:32:11.157Z,68.35
2019-02-12T02:34:39.657Z,68.15
2019-02-12T02:37:08.114Z,68.68
2019-02-12T02:39:36.601Z,68.70
2019-02-12T02:42:05.080Z,68.58
2019-02-12T02:44:33.301Z,68.58
2019-02-12T02:47:01.840Z,68.01
2019-02-12T02:49:30.070Z,68.00
2019-02-12T02:51:58.321Z,68.32
2019-02-12T02:54:26.550Z,68.32
2019-02-12T02:56:54.791Z,68.85
2019-02-12T02:59:23.030Z,69.20
2019-02-12T03:01:51.275Z,69.20
2019-02-12T03:04:19.514Z,69.54
2019-02-12T03:06:48.069Z,70.21
2019-02-12T03:09:16.294Z,70.21
2019-02-12T03:11:44.537Z,70.65
2019-02-12T03:14:13.100Z,71.15
2019-02-12T03:16:41.346Z,71.15
2019-02-12T03:19:09.580Z,71.04
2019-02-12T03:21:37.856Z,71.04
2019-02-12T03:24:06.084Z,71.12
2019-02-12T03:26:34.329Z,71.37
2019-02-12T03:29:02.558Z,71.37
2019-02-12T03:31:31.141Z,71.78
2019-02-12T03:33:59.379Z,71.78
2019-02-12T03:36:27.625Z,71.74
2019-02-12T03:38:55.869Z,71.49
2019-02-12T03:41:24.348Z,72.25
2019-02-12T03:43:52.580Z,72.25
2019-02-12T03:46:20.926Z,72.04
2019-02-12T03:48:49.164Z,72.04
2019-02-12T03:51:17.627Z,72.01
2019-02-12T03:53:45.870Z,71.70
2019-02-12T03:56:14.429Z,71.71
2019-02-12T03:58:42.662Z,72.19
2019-02-12T04:01:11.280Z,71.80
2019-02-12T04:03:39.520Z,71.48
2019-02-12T04:06:07.851Z,70.68
2019-02-12T04:08:36.095Z,70.68
2019-02-12T04:11:04.334Z,70.88
2019-02-12T04:13:32.587Z,70.44
2019-02-12T04:16:00.818Z,70.44
2019-02-12T04:18:29.063Z,71.00
2019-02-12T04:20:57.601Z,71.01
2019-02-12T04:23:26.088Z,70.51
2019-02-12T04:25:54.374Z,70.51
2019-02-12T04:28:22.617Z,69.33
2019-02-12T04:30:50.929Z,70.32
2019-02-12T04:33:19.499Z,69.79
2019-02-12T04:35:47.736Z,70.34
2019-02-12T04:38:15.985Z,70.50
2019-02-12T04:40:44.220Z,70.50
2019-02-12T04:43:12.711Z,70.51
2019-02-12T04:45:40.999Z,70.69
2019-02-12T04:48:09.242Z,70.67
2019-02-12T04:50:37.751Z,70.44
2019-02-12T04:53:06.224Z,71.18
2019-02-12T04:55:34.464Z,70.80
2019-02-12T04:58:02.706Z,70.34
2019-02-12T05:00:30.962Z,70.75
2019-02-12T05:02:59.446Z,70.75
2019-02-12T05:05:28.024Z,70.26
2019-02-12T05:07:56.272Z,70.42
2019-02-12T05:10:28.049Z,70.61
2019-02-12T05:12:56.293Z,71.33
2019-02-12T05:15:24.537Z,71.99
2019-02-12T05:17:52.770Z,71.47
2019-02-12T05:20:21.012Z,71.48
2019-02-12T05:22:49.243Z,71.48
2019-02-12T05:25:17.826Z,71.72
2019-02-12T05:27:46.139Z,72.28
2019-02-12T05:30:14.960Z,72.24
2019-02-12T05:32:43.190Z,72.32
2019-02-12T05:35:11.455Z,72.55
2019-02-12T05:37:39.925Z,72.55
2019-02-12T05:40:10.012Z,72.13
2019-02-12T05:42:38.643Z,72.71
2019-02-12T05:45:10.025Z,72.55
2019-02-12T05:47:38.569Z,72.42
2019-02-12T05:50:15.138Z,72.33
2019-02-12T05:52:53.213Z,71.59
2019-02-12T05:55:13.640Z,71.59
2019-02-12T05:57:41.881Z,72.15
2019-02-12T06:00:19.808Z,72.15
2019-02-12T06:02:48.036Z,71.86
2019-02-12T06:05:19.447Z,72.54
2019-02-12T06:07:47.925Z,72.36
2019-02-12T06:10:16.217Z,72.95
2019-02-12T06:12:44.455Z,72.95
2019-02-12T06:15:12.721Z,73.08
2019-02-12T06:17:40.936Z,73.08
2019-02-12T06:20:09.248Z,72.97
2019-02-12T06:22:37.793Z,73.20
2019-02-12T06:25:08.149Z,73.09
2019-02-12T06:27:37.013Z,72.39
2019-02-12T06:30:08.508Z,72.39
2019-02-12T06:32:36.772Z,72.25
2019-02-12T06:35:07.675Z,72.25
2019-02-12T06:37:36.133Z,72.00
2019-02-12T06:40:07.322Z,71.87
2019-02-12T06:42:35.563Z,71.93
2019-02-12T06:45:05.247Z,71.57
2019-02-12T06:47:33.601Z,71.57
2019-02-12T06:50:01.829Z,70.85
2019-02-12T06:52:30.998Z,71.12
2019-02-12T06:54:59.543Z,71.12
2019-02-12T06:57:27.769Z,70.77
2019-02-12T06:59:56.016Z,71.20
2019-02-12T07:03:01.003Z,70.66
2019-02-12T07:05:29.501Z,71.13
2019-02-12T07:10:27.021Z,70.75
2019-02-12T07:13:03.246Z,70.88
2019-02-12T07:15:31.400Z,70.96
2019-02-12T07:18:14.814Z,71.03
2019-02-12T07:20:46.227Z,71.03
2019-02-12T07:23:37.381Z,70.54
2019-02-12T07:26:14.767Z,70.22
2019-02-12T07:28:54.838Z,71.02
2019-02-12T07:31:42.466Z,71.02
2019-02-12T07:34:16.677Z,70.60
2019-02-12T07:37:07.269Z,70.40
2019-02-12T07:39:44.514Z,70.44
2019-02-12T07:42:18.685Z,70.51
2019-02-12T07:45:09.634Z,70.51
2019-02-12T07:47:44.009Z,70.60
2019-02-12T07:50:30.340Z,70.56
2019-02-12T07:53:01.747Z,70.60
2019-02-12T07:55:38.925Z,70.86
2019-02-12T07:58:27.123Z,70.44
2019-02-12T08:00:58.576Z,70.31
2019-02-12T08:03:55.317Z,70.94
2019-02-12T08:06:32.513Z,70.60
2019-02-12T08:09:29.749Z,70.21
2019-02-12T08:12:03.842Z,69.72
2019-02-12T08:14:40.992Z,69.43
2019-02-12T08:17:15.358Z,69.34
2019-02-12T08:19:46.760Z,69.34
2019-02-12T08:22:27.126Z,69.33
2019-02-12T08:25:00.954Z,69.08
2019-02-12T08:27:41.214Z,69.48
2019-02-12T08:30:30.495Z,69.48
2019-02-12T08:33:31.128Z,68.27
2019-02-12T08:36:08.228Z,67.68
2019-02-12T08:39:06.843Z,67.21
2019-02-12T08:42:09.675Z,67.53
2019-02-12T08:44:41.071Z,67.04
2019-02-12T08:47:27.370Z,67.41
2019-02-12T08:50:07.837Z,68.22
2019-02-12T08:52:53.812Z,66.81
2019-02-12T08:55:25.453Z,66.81
2019-02-12T08:58:11.276Z,67.00
2019-02-12T09:01:00.616Z,67.02
2019-02-12T09:03:37.988Z,66.96
2019-02-12T09:06:15.022Z,67.27
2019-02-12T09:08:52.120Z,67.13
2019-02-12T09:11:32.553Z,67.31
2019-02-12T09:14:06.906Z,67.05
2019-02-12T09:16:40.807Z,66.68
2019-02-12T09:19:20.727Z,66.33
2019-02-12T09:22:22.193Z,66.46
2019-02-12T09:25:08.425Z,66.50
2019-02-12T09:28:00.654Z,66.87
2019-02-12T09:30:57.575Z,66.72
2019-02-12T09:33:51.281Z,66.72
2019-02-12T09:36:25.373Z,66.60
2019-02-12T09:38:59.672Z,66.60
2019-02-12T09:41:31.179Z,66.55
2019-02-12T09:44:08.539Z,66.55
2019-02-12T09:46:48.597Z,66.51
2019-02-12T09:49:25.812Z,66.67
2019-02-12T09:52:13.438Z,66.44
2019-02-12T09:54:44.846Z,66.88
2019-02-12T09:57:27.312Z,66.41
2019-02-12T10:00:08.290Z,66.88
2019-02-12T10:02:42.407Z,66.92
2019-02-12T10:05:28.573Z,67.28
2019-02-12T10:08:33.065Z,67.28
2019-02-12T10:11:16.447Z,67.02
2019-02-12T10:13:47.854Z,67.14
2019-02-12T10:16:40.328Z,66.42
2019-02-12T10:19:26.923Z,66.37
2019-02-12T10:22:31.127Z,66.18
2019-02-12T10:25:17.888Z,66.06
2019-02-12T10:27:52.092Z,65.98
2019-02-12T10:30:29.136Z,65.64
2019-02-12T10:32:57.597Z,65.85
2019-02-12T10:35:26.067Z,65.39
2019-02-12T10:37:54.302Z,65.49
2019-02-12T10:40:22.547Z,65.56
2019-02-12T10:42:50.777Z,65.27
2019-02-12T10:45:19.239Z,65.29
2019-02-12T10:47:47.521Z,65.38
2019-02-12T10:50:15.947Z,65.18
2019-02-12T10:52:44.175Z,64.93
2019-02-12T10:55:12.678Z,65.21
2019-02-12T10:57:40.914Z,65.56
2019-02-12T11:00:12.326Z,64.80
2019-02-12T11:02:40.560Z,64.50
2019-02-12T11:05:09.048Z,64.89
2019-02-12T11:07:37.277Z,65.22
2019-02-12T11:10:08.063Z,65.06
2019-02-12T11:12:36.294Z,64.55
2019-02-12T11:15:06.873Z,64.66
2019-02-12T11:17:35.118Z,64.68
2019-02-12T11:20:04.228Z,65.04
2019-02-12T11:22:32.457Z,64.89
2019-02-12T11:25:01.017Z,64.37
2019-02-12T11:27:29.483Z,64.53
2019-02-12T11:29:57.726Z,64.74
2019-02-12T11:32:25.962Z,65.07
2019-02-12T11:34:54.247Z,64.80
2019-02-12T11:37:22.482Z,64.97
2019-02-12T11:39:50.817Z,64.67
2019-02-12T11:42:19.054Z,64.28
2019-02-12T11:44:47.295Z,63.22
2019-02-12T11:47:15.526Z,63.74
2019-02-12T11:49:43.991Z,64.13
2019-02-12T11:52:12.236Z,64.27
2019-02-12T11:54:43.839Z,64.28
2019-02-12T11:57:10.429Z,63.53
2019-02-12T11:59:38.657Z,63.41
2019-02-12T12:02:06.903Z,63.14
2019-02-12T12:04:35.144Z,63.22
2019-02-12T12:07:03.402Z,62.90
2019-02-12T12:09:31.630Z,62.16
2019-02-12T12:11:59.871Z,61.79
2019-02-12T12:14:28.101Z,62.05
2019-02-12T12:16:56.594Z,62.02
2019-02-12T12:19:25.051Z,62.06
2019-02-12T12:21:53.536Z,61.93
2019-02-12T12:24:21.997Z,61.95
2019-02-12T12:26:50.239Z,61.80
2019-02-12T12:29:18.467Z,61.60
2019-02-12T12:31:46.945Z,60.63
2019-02-12T12:34:15.185Z,61.11
2019-02-12T12:36:43.426Z,61.23
2019-02-12T12:39:11.891Z,61.46
2019-02-12T12:41:40.356Z,61.54
2019-02-12T12:44:08.613Z,61.54
2019-02-12T12:46:36.842Z,61.21
2019-02-12T12:49:05.080Z,60.54
2019-02-12T12:51:33.549Z,60.56
2019-02-12T12:54:01.779Z,60.95
2019-02-12T12:56:30.018Z,61.39
2019-02-12T12:58:58.278Z,61.33
2019-02-12T13:01:26.524Z,60.94
2019-02-12T13:03:54.753Z,60.78
2019-02-12T13:06:22.984Z,60.66
2019-02-12T13:08:51.517Z,60.80
2019-02-12T13:11:19.760Z,60.67
2019-02-12T13:13:48.038Z,61.02
2019-02-12T13:16:16.556Z,61.29
2019-02-12T13:18:44.798Z,60.88
2019-02-12T13:21:13.037Z,61.03
2019-02-12T13:23:41.592Z,61.21
2019-02-12T13:26:09.831Z,60.65
2019-02-12T13:28:38.352Z,60.68
2019-02-12T13:31:06.754Z,60.71
2019-02-12T13:33:35.001Z,60.85
2019-02-12T13:36:03.235Z,60.64
2019-02-12T13:38:31.488Z,60.96
2019-02-12T13:40:59.739Z,61.44
2019-02-12T13:43:28.317Z,61.69
2019-02-12T13:45:56.803Z,61.52
2019-02-12T13:48:25.052Z,61.59
2019-02-12T13:50:53.296Z,61.75
2019-02-12T13:53:21.838Z,61.74
2019-02-12T13:55:50.085Z,61.81
2019-02-12T13:58:18.332Z,62.10
2019-02-12T14:00:46.871Z,61.71
2019-02-12T14:03:22.313Z,60.85
2019-02-12T14:05:45.125Z,60.84
2019-02-12T14:08:13.413Z,60.92
2019-02-12T14:10:41.659Z,60.78
2019-02-12T14:13:10.205Z,60.80
2019-02-12T14:15:38.436Z,60.84
2019-02-12T14:18:06.672Z,61.01
2019-02-12T14:20:34.921Z,60.34
2019-02-12T14:23:03.154Z,60.41
2019-02-12T14:25:31.399Z,60.79
2019-02-12T14:28:00.694Z,60.89
2019-02-12T14:30:29.006Z,60.80
2019-02-12T14:32:57.182Z,61.23
2019-02-12T14:35:25.423Z,60.97
2019-02-12T14:37:53.661Z,60.66
2019-02-12T14:40:21.909Z,60.66
2019-02-12T14:42:50.384Z,60.66
2019-02-12T14:45:19.522Z,60.81
2019-02-12T14:47:47.928Z,60.25
2019-02-12T14:50:20.921Z,60.52
2019-02-12T14:52:49.162Z,60.71
2019-02-12T14:55:17.647Z,60.54
2019-02-12T14:57:45.889Z,60.85
2019-02-12T15:00:18.181Z,60.81
2019-02-12T15:02:46.409Z,61.13
2019-02-12T15:05:14.651Z,61.49
2019-02-12T15:07:43.118Z,61.68
2019-02-12T15:10:12.809Z,61.53
2019-02-12T15:12:41.043Z,61.48
2019-02-12T15:15:10.448Z,61.85
2019-02-12T15:17:38.681Z,61.94
2019-02-12T15:20:11.785Z,61.96
2019-02-12T15:22:40.024Z,62.21
2019-02-12T15:25:12.378Z,62.24
2019-02-12T15:27:40.691Z,62.05
2019-02-12T15:30:14.298Z,62.20
2019-02-12T15:32:42.532Z,62.32
2019-02-12T15:35:11.245Z,62.36
2019-02-12T15:37:39.713Z,62.51
2019-02-12T15:40:10.959Z,62.81
2019-02-12T15:42:39.192Z,62.73
2019-02-12T15:45:10.582Z,62.91
2019-02-12T15:47:38.814Z,62.77
2019-02-12T15:50:09.608Z,62.76
2019-02-12T15:52:37.844Z,62.76
2019-02-12T15:55:09.234Z,62.53
2019-02-12T15:57:37.716Z,62.67
2019-02-12T16:00:09.639Z,62.70
2019-02-12T16:02:38.107Z,63.01
2019-02-12T16:05:10.406Z,63.49
2019-02-12T16:07:38.842Z,63.92
2019-02-12T16:10:16.877Z,64.16
2019-02-12T16:12:46.535Z,64.30
2019-02-12T16:15:16.647Z,64.22
2019-02-12T16:17:44.884Z,63.95
2019-02-12T16:20:13.190Z,64.19
2019-02-12T16:22:41.663Z,63.94
2019-02-12T16:25:12.504Z,64.42
2019-02-12T16:27:40.753Z,64.33
2019-02-12T16:30:11.786Z,64.25
2019-02-12T16:32:40.031Z,64.18
2019-02-12T16:35:11.243Z,64.27
2019-02-12T16:37:39.483Z,64.27
2019-02-12T16:40:10.556Z,64.28
2019-02-12T16:42:39.042Z,64.37
2019-02-12T16:45:10.289Z,64.42
2019-02-12T16:47:38.526Z,64.46
2019-02-12T16:50:08.099Z,63.63
2019-02-12T16:52:36.340Z,63.98
2019-02-12T16:55:06.411Z,64.12
2019-02-12T16:57:34.657Z,63.62
2019-02-12T17:00:04.136Z,63.84
2019-02-12T17:02:32.378Z,63.99
2019-02-12T17:05:00.845Z,63.62
2019-02-12T17:07:29.170Z,63.96
2019-02-12T17:09:57.640Z,63.93
2019-02-12T17:12:25.894Z,63.82
2019-02-12T17:14:54.132Z,63.67
2019-02-12T17:17:22.382Z,64.14
2019-02-12T17:19:50.615Z,63.95
2019-02-12T17:22:18.866Z,64.20
2019-02-12T17:24:47.102Z,64.15
2019-02-12T17:27:15.341Z,64.02
2019-02-12T17:29:43.813Z,64.33
2019-02-12T17:32:12.279Z,64.28
2019-02-12T17:34:40.558Z,65.00
2019-02-12T17:37:08.802Z,64.76
2019-02-12T17:39:37.270Z,64.35
2019-02-12T17:42:05.522Z,64.21
2019-02-12T17:44:33.758Z,64.39
2019-02-12T17:47:02.001Z,64.45
2019-02-12T17:49:30.466Z,64.61
2019-02-12T17:51:58.708Z,64.71
2019-02-12T17:54:27.180Z,64.90
2019-02-12T17:56:55.639Z,65.05
2019-02-12T17:59:24.116Z,65.47
2019-02-12T18:01:52.585Z,65.59
2019-02-12T18:04:21.002Z,65.60
2019-02-12T18:06:49.228Z,65.85
2019-02-12T18:09:17.483Z,66.21
2019-02-12T18:11:45.725Z,66.57
2019-02-12T18:14:13.965Z,66.60
2019-02-12T18:16:42.205Z,66.78
2019-02-12T18:19:10.572Z,66.81
2019-02-12T18:21:39.031Z,67.48
2019-02-12T18:24:07.485Z,67.63
2019-02-12T18:26:35.872Z,67.36
2019-02-12T18:29:04.122Z,67.50
2019-02-12T18:31:32.351Z,68.17
2019-02-12T18:34:00.614Z,68.17
2019-02-12T18:36:28.841Z,68.60
2019-02-12T18:38:57.318Z,68.68
2019-02-12T18:41:25.569Z,68.84
2019-02-12T18:43:54.056Z,68.84
2019-02-12T18:46:22.297Z,69.11
2019-02-12T18:48:50.539Z,69.09
2019-02-12T18:51:18.777Z,68.84
2019-02-12T18:53:47.247Z,68.87
2019-02-12T18:56:15.826Z,68.87
2019-02-12T18:58:44.310Z,68.66
2019-02-12T19:01:12.556Z,68.52
2019-02-12T19:03:41.065Z,69.32
2019-02-12T19:06:09.308Z,69.32
2019-02-12T19:08:37.547Z,68.69
2019-02-12T19:11:06.010Z,68.85
2019-02-12T19:13:34.482Z,68.85
2019-02-12T19:16:02.722Z,68.99
2019-02-12T19:18:31.238Z,69.48
2019-02-12T19:20:59.478Z,70.65
2019-02-12T19:23:27.794Z,70.65
2019-02-12T19:25:56.031Z,69.88
2019-02-12T19:28:24.516Z,69.88
2019-02-12T19:30:52.763Z,70.15
2019-02-12T19:33:21.040Z,70.86
2019-02-12T19:35:49.247Z,70.29
2019-02-12T19:38:17.484Z,70.46
2019-02-12T19:40:45.727Z,71.83
2019-02-12T19:43:15.458Z,70.71
2019-02-12T19:45:44.016Z,71.55
2019-02-12T19:48:12.267Z,71.55
2019-02-12T19:50:40.508Z,71.79
2019-02-12T19:53:08.973Z,72.94
2019-02-12T19:55:37.224Z,72.97
2019-02-12T19:58:05.690Z,72.97
2019-02-12T20:00:34.168Z,72.70
2019-02-12T20:03:02.642Z,72.31
2019-02-12T20:05:30.899Z,72.31
2019-02-12T20:07:59.134Z,73.42
2019-02-12T20:10:27.377Z,73.42
2019-02-12T20:12:55.611Z,72.91
2019-02-12T20:15:23.857Z,72.77
2019-02-12T20:17:52.097Z,73.21
2019-02-12T20:20:20.382Z,72.52
2019-02-12T20:22:48.620Z,73.46
2019-02-12T20:25:16.867Z,73.15
2019-02-12T20:27:45.340Z,73.15
2019-02-12T20:30:15.033Z,73.09
2019-02-12T20:32:43.254Z,73.18
2019-02-12T20:35:13.344Z,73.18
2019-02-12T20:37:41.585Z,73.44
2019-02-12T20:40:11.872Z,74.17
2019-02-12T20:42:40.105Z,73.60
2019-02-12T20:45:11.547Z,73.60
2019-02-12T20:47:39.780Z,73.54
2019-02-12T20:50:10.458Z,73.51
2019-02-12T20:52:38.708Z,73.48
2019-02-12T20:55:08.092Z,73.63
2019-02-12T20:57:36.329Z,73.52
2019-02-12T21:00:10.490Z,73.31
2019-02-12T21:02:38.739Z,73.27
2019-02-12T21:05:09.521Z,73.21
2019-02-12T21:07:37.991Z,73.37
2019-02-12T21:10:09.400Z,73.41
2019-02-12T21:12:37.641Z,73.41
2019-02-12T21:15:09.289Z,73.32
2019-02-12T21:17:37.543Z,73.14
2019-02-12T21:20:08.505Z,73.07
2019-02-12T21:22:36.754Z,72.95
2019-02-12T21:25:07.729Z,72.82
2019-02-12T21:27:35.975Z,72.34
2019-02-12T21:30:06.913Z,72.74
2019-02-12T21:32:35.477Z,72.74
2019-02-12T21:35:04.538Z,73.48
2019-02-12T21:37:33.066Z,73.83
2019-02-12T21:40:01.531Z,74.69
2019-02-12T21:42:29.775Z,74.77
2019-02-12T21:44:58.248Z,75.33
2019-02-12T21:47:26.489Z,74.62
2019-02-12T21:49:54.734Z,74.39
2019-02-12T21:52:23.224Z,74.35
2019-02-12T21:54:51.692Z,75.02
2019-02-12T21:57:20.169Z,74.52
2019-02-12T21:59:48.636Z,75.95
2019-02-12T22:02:16.884Z,74.51
2019-02-12T22:04:45.121Z,74.75
2019-02-12T22:07:13.363Z,74.50
2019-02-12T22:09:41.598Z,74.67
2019-02-12T22:12:09.842Z,74.51
2019-02-12T22:14:38.069Z,74.62
2019-02-12T22:17:06.541Z,74.44
2019-02-12T22:19:35.011Z,74.34
2019-02-12T22:22:03.492Z,75.05
2019-02-12T22:24:31.734Z,75.11
2019-02-12T22:26:59.980Z,74.37
2019-02-12T22:29:28.218Z,74.40
2019-02-12T22:31:56.457Z,75.30
2019-02-12T22:34:24.698Z,74.35
2019-02-12T22:36:53.170Z,74.20
2019-02-12T22:39:21.409Z,74.10
2019-02-12T22:41:49.657Z,74.58
2019-02-12T22:44:17.888Z,74.61
2019-02-12T22:46:46.463Z,75.06
2019-02-12T22:49:14.702Z,74.88
2019-02-12T22:51:42.953Z,74.95
2019-02-12T22:54:11.194Z,74.91
2019-02-12T22:56:39.779Z,75.18
2019-02-12T22:59:08.022Z,75.53
2019-02-12T23:01:37.494Z,75.90
2019-02-12T23:04:05.737Z,75.77
2019-02-12T23:06:33.981Z,75.43
2019-02-12T23:09:02.696Z,75.63
2019-02-12T23:11:31.278Z,75.50
2019-02-12T23:13:59.521Z,75.32
2019-02-12T23:16:27.763Z,76.23
2019-02-12T23:18:56.005Z,75.99
2019-02-12T23:21:24.248Z,75.68
2019-02-12T23:23:52.494Z,75.49
2019-02-12T23:26:20.730Z,75.50
2019-02-12T23:28:48.973Z,76.36
2019-02-12T23:31:17.210Z,75.54
2019-02-12T23:33:45.452Z,75.84
2019-02-12T23:36:13.689Z,76.00
2019-02-12T23:38:41.929Z,75.29
2019-02-12T23:41:10.218Z,74.91
2019-02-12T23:43:38.402Z,74.57
2019-02-12T23:46:06.637Z,75.33
2019-02-12T23:48:34.876Z,75.48
2019-02-12T23:51:03.115Z,75.37
2019-02-12T23:53:31.355Z,75.52
2019-02-12T23:55:59.827Z,75.67
2019-02-12T23:58:28.066Z,75.27
